Observation data for Knox City on 01/20/2019      Previous  Date  Next       Current Mesonet Observations  Soil Data  Daily Summary Page  Observations in Plain Language
KKN1 200600Z 06004KT M01/M05 A3036 RMK A01 T10061053  RH  070%=      5-min Rain = 0
KKN1 200605Z 04002KT M01/M05 A3037 RMK A01 T10081051  RH  073%=      5-min Rain = 0
KKN1 200610Z 06003KT M01/M05 A3037 RMK A01 T10111051  RH  074%=      5-min Rain = 0
KKN1 200615Z 07003KT M01/M05 A3036 RMK A01 T10101049  RH  075%=      5-min Rain = 0
KKN1 200620Z 08003KT M01/M05 A3037 RMK A01 T10081052  RH  072%=      5-min Rain = 0
KKN1 200625Z 10001KT M01/M05 A3037 RMK A01 T10081051  RH  073%=      5-min Rain = 0
KKN1 200630Z 10000KT M01/M05 A3038 RMK A01 T10091053  RH  072%=      5-min Rain = 0
KKN1 200635Z 10001KT M01/M05 A3038 RMK A01 T10091053  RH  072%=      5-min Rain = 0
KKN1 200640Z 10002KT M01/M05 A3036 RMK A01 T10111052  RH  073%=      5-min Rain = 0
KKN1 200645Z 08002KT M01/M05 A3036 RMK A01 T10111049  RH  076%=      5-min Rain = 0
KKN1 200650Z 07002KT M01/M05 A3037 RMK A01 T10131050  RH  076%=      5-min Rain = 0
KKN1 200655Z 08002KT M01/M05 A3037 RMK A01 T10131053  RH  075%=      5-min Rain = 0
KKN1 200700Z 06002KT M01/M05 A3038 RMK A01 T10141052  RH  076%=      5-min Rain = 0
KKN1 200705Z 05002KT M02/M05 A3038 RMK A01 T10211049  RH  082%=      5-min Rain = 0
KKN1 200710Z 05001KT M02/M05 A3038 RMK A01 T10221050  RH  082%=      5-min Rain = 0
KKN1 200715Z 10002KT M02/M05 A3037 RMK A01 T10201051  RH  079%=      5-min Rain = 0
KKN1 200720Z 14004KT M02/M05 A3036 RMK A01 T10161048  RH  079%=      5-min Rain = 0
KKN1 200725Z 16004KT M02/M05 A3036 RMK A01 T10191047  RH  081%=      5-min Rain = 0
KKN1 200730Z 15005KT M02/M05 A3036 RMK A01 T10211051  RH  080%=      5-min Rain = 0
KKN1 200735Z 14004KT M02/M05 A3036 RMK A01 T10211051  RH  080%=      5-min Rain = 0
KKN1 200740Z 15003KT M02/M05 A3037 RMK A01 T10221050  RH  081%=      5-min Rain = 0
KKN1 200745Z 15003KT M02/M05 A3037 RMK A01 T10221050  RH  081%=      5-min Rain = 0
KKN1 200750Z 16004KT M02/M05 A3037 RMK A01 T10231049  RH  082%=      5-min Rain = 0
KKN1 200755Z 16004KT M02/M05 A3037 RMK A01 T10231049  RH  083%=      5-min Rain = 0
KKN1 200800Z 18005KT M02/M05 A3037 RMK A01 T10221049  RH  082%=      5-min Rain = 0
KKN1 200805Z 17005KT M02/M05 A3037 RMK A01 T10221048  RH  083%=      5-min Rain = 0
KKN1 200810Z 17003KT M02/M05 A3038 RMK A01 T10221049  RH  082%=      5-min Rain = 0
KKN1 200815Z 17003KT M02/M05 A3038 RMK A01 T10221049  RH  082%=      5-min Rain = 0
KKN1 200820Z 17004KT M02/M05 A3038 RMK A01 T10231047  RH  084%=      5-min Rain = 0
KKN1 200825Z 17003KT M02/M05 A3039 RMK A01 T10241046  RH  085%=      5-min Rain = 0
KKN1 200830Z 18003KT M03/M05 A3039 RMK A01 T10261047  RH  086%=      5-min Rain = 0
KKN1 200835Z 18004KT M03/M05 A3038 RMK A01 T10261048  RH  085%=      5-min Rain = 0
KKN1 200840Z 18004KT M03/M05 A3038 RMK A01 T10271047  RH  086%=      5-min Rain = 0
KKN1 200845Z 16003KT M03/M05 A3038 RMK A01 T10271046  RH  087%=      5-min Rain = 0
KKN1 200850Z 16004KT M03/M05 A3037 RMK A01 T10271046  RH  087%=      5-min Rain = 0
KKN1 200855Z 16003KT M03/M05 A3037 RMK A01 T10271047  RH  087%=      5-min Rain = 0
KKN1 200900Z 17003KT M03/M05 A3037 RMK A01 T10281047  RH  087%=      5-min Rain = 0
KKN1 200905Z 19004KT M03/M05 A3037 RMK A01 T10291047  RH  088%=      5-min Rain = 0
KKN1 200910Z 22005KT M03/M05 A3038 RMK A01 T10291048  RH  087%=      5-min Rain = 0
KKN1 200915Z 23004KT M03/M05 A3038 RMK A01 T10271049  RH  085%=      5-min Rain = 0
KKN1 200920Z 23003KT M03/M05 A3038 RMK A01 T10251050  RH  083%=      5-min Rain = 0
KKN1 200925Z 22001KT M02/M05 A3037 RMK A01 T10241051  RH  082%=      5-min Rain = 0
KKN1 200930Z 22001KT M03/M05 A3038 RMK A01 T10261052  RH  082%=      5-min Rain = 0
KKN1 200935Z 18002KT M03/M05 A3038 RMK A01 T10291053  RH  084%=      5-min Rain = 0
KKN1 200940Z 17002KT M03/M05 A3038 RMK A01 T10291048  RH  087%=      5-min Rain = 0
KKN1 200945Z 18002KT M03/M05 A3038 RMK A01 T10301048  RH  088%=      5-min Rain = 0
KKN1 200950Z 19003KT M03/M05 A3037 RMK A01 T10311049  RH  088%=      5-min Rain = 0
KKN1 200955Z 20003KT M03/M05 A3037 RMK A01 T10321048  RH  089%=      5-min Rain = 0
KKN1 201000Z 20003KT M03/M05 A3037 RMK A01 T10321047  RH  090%=      5-min Rain = 0
KKN1 201005Z 20002KT M03/M05 A3037 RMK A01 T10321047  RH  090%=      5-min Rain = 0
KKN1 201010Z 20003KT M03/M05 A3037 RMK A01 T10321046  RH  090%=      5-min Rain = 0
KKN1 201015Z 20003KT M03/M05 A3037 RMK A01 T10331047  RH  090%=      5-min Rain = 0
KKN1 201020Z 20004KT M03/M05 A3036 RMK A01 T10331047  RH  090%=      5-min Rain = 0
KKN1 201025Z 20004KT M03/M05 A3036 RMK A01 T10331047  RH  090%=      5-min Rain = 0
KKN1 201030Z 20004KT M03/M05 A3036 RMK A01 T10341047  RH  091%=      5-min Rain = 0
KKN1 201035Z 20004KT M03/M05 A3036 RMK A01 T10341047  RH  091%=      5-min Rain = 0
KKN1 201040Z 20004KT M04/M05 A3035 RMK A01 T10351048  RH  091%=      5-min Rain = 0
KKN1 201045Z 20004KT M04/M05 A3036 RMK A01 T10361048  RH  091%=      5-min Rain = 0
KKN1 201050Z 20004KT M04/M05 A3036 RMK A01 T10371050  RH  091%=      5-min Rain = 0
KKN1 201055Z 21006KT M04/M05 A3036 RMK A01 T10371051  RH  091%=      5-min Rain = 0
KKN1 201100Z 20004KT M04/M05 A3036 RMK A01 T10361051  RH  090%=      5-min Rain = 0
KKN1 201105Z 20005KT M03/M05 A3036 RMK A01 T10341050  RH  089%=      5-min Rain = 0
KKN1 201110Z 19004KT M03/M05 A3035 RMK A01 T10321050  RH  087%=      5-min Rain = 0
KKN1 201115Z 19005KT M03/M05 A3035 RMK A01 T10321053  RH  086%=      5-min Rain = 0
KKN1 201120Z 19004KT M03/M05 A3035 RMK A01 T10331053  RH  086%=      5-min Rain = 0
KKN1 201125Z 20005KT M03/M05 A3035 RMK A01 T10331054  RH  086%=      5-min Rain = 0
KKN1 201130Z 20005KT M03/M05 A3035 RMK A01 T10331053  RH  086%=      5-min Rain = 0
KKN1 201135Z 21006KT M03/M05 A3035 RMK A01 T10321054  RH  085%=      5-min Rain = 0
KKN1 201140Z 22003KT M03/M05 A3035 RMK A01 T10321054  RH  085%=      5-min Rain = 0
KKN1 201145Z 22003KT M03/M06 A3035 RMK A01 T10321055  RH  085%=      5-min Rain = 0
KKN1 201150Z 22001KT M03/M06 A3035 RMK A01 T10331056  RH  084%=      5-min Rain = 0
KKN1 201155Z 22001KT M03/M06 A3034 RMK A01 T10341056  RH  085%=      5-min Rain = 0
KKN1 201200Z 22002KT M03/M05 A3034 RMK A01 T10341052  RH  088%=      5-min Rain = 0
KKN1 201205Z 22003KT M03/M05 A3034 RMK A01 T10331050  RH  088%=      5-min Rain = 0
KKN1 201210Z 21003KT M03/M05 A3034 RMK A01 T10331050  RH  089%=      5-min Rain = 0
KKN1 201215Z 21004KT M03/M05 A3034 RMK A01 T10341051  RH  088%=      5-min Rain = 0
KKN1 201220Z 20003KT M03/M05 A3034 RMK A01 T10341050  RH  089%=      5-min Rain = 0
KKN1 201225Z 19003KT M03/M05 A3034 RMK A01 T10331051  RH  088%=      5-min Rain = 0
KKN1 201230Z 19003KT M03/M05 A3034 RMK A01 T10341052  RH  088%=      5-min Rain = 0
KKN1 201235Z 18003KT M04/M05 A3033 RMK A01 T10351052  RH  088%=      5-min Rain = 0
KKN1 201240Z 18003KT M04/M05 A3033 RMK A01 T10361053  RH  088%=      5-min Rain = 0
KKN1 201245Z 19003KT M04/M05 A3034 RMK A01 T10351054  RH  087%=      5-min Rain = 0
KKN1 201250Z 20004KT M03/M05 A3034 RMK A01 T10341052  RH  088%=      5-min Rain = 0
KKN1 201255Z 19003KT M03/M05 A3035 RMK A01 T10331051  RH  088%=      5-min Rain = 0
KKN1 201300Z 20003KT M03/M05 A3034 RMK A01 T10331051  RH  088%=      5-min Rain = 0
KKN1 201305Z 21003KT M03/M05 A3034 RMK A01 T10341052  RH  088%=      5-min Rain = 0
KKN1 201310Z 22003KT M03/M05 A3035 RMK A01 T10341053  RH  087%=      5-min Rain = 0
KKN1 201315Z 22004KT M04/M05 A3035 RMK A01 T10351054  RH  087%=      5-min Rain = 0
KKN1 201320Z 21004KT M04/M05 A3035 RMK A01 T10351052  RH  088%=      5-min Rain = 0
KKN1 201325Z 21004KT M04/M05 A3035 RMK A01 T10351052  RH  088%=      5-min Rain = 0
KKN1 201330Z 22003KT M04/M05 A3035 RMK A01 T10361053  RH  089%=      5-min Rain = 0
KKN1 201335Z 23002KT M04/M05 A3034 RMK A01 T10361052  RH  089%=      5-min Rain = 0
KKN1 201340Z 23002KT M04/M05 A3035 RMK A01 T10381053  RH  089%=      5-min Rain = 0
KKN1 201345Z 22002KT M04/M05 A3035 RMK A01 T10371052  RH  090%=      5-min Rain = 0
KKN1 201350Z 21003KT M04/M05 A3035 RMK A01 T10351049  RH  091%=      5-min Rain = 0
KKN1 201355Z 21003KT M03/M05 A3035 RMK A01 T10331046  RH  091%=      5-min Rain = 0
KKN1 201400Z 21003KT M03/M05 A3035 RMK A01 T10321047  RH  090%=      5-min Rain = 0
KKN1 201405Z 22003KT M03/M05 A3035 RMK A01 T10331048  RH  090%=      5-min Rain = 0
KKN1 201410Z 20003KT M03/M05 A3035 RMK A01 T10311047  RH  089%=      5-min Rain = 0
KKN1 201415Z 19003KT M03/M05 A3035 RMK A01 T10301047  RH  088%=      5-min Rain = 0
KKN1 201420Z 19004KT M03/M05 A3035 RMK A01 T10291047  RH  088%=      5-min Rain = 0
KKN1 201425Z 19004KT M03/M05 A3034 RMK A01 T10281048  RH  087%=      5-min Rain = 0
KKN1 201430Z 18003KT M03/M05 A3035 RMK A01 T10261048  RH  086%=      5-min Rain = 0
KKN1 201435Z 19004KT M02/M05 A3035 RMK A01 T10231045  RH  085%=      5-min Rain = 0
KKN1 201440Z 19004KT M02/M05 A3034 RMK A01 T10191045  RH  083%=      5-min Rain = 0
KKN1 201445Z 19004KT M01/M04 A3034 RMK A01 T10141044  RH  080%=      5-min Rain = 0
KKN1 201450Z 18004KT M01/M04 A3034 RMK A01 T10111042  RH  079%=      5-min Rain = 0
KKN1 201455Z 17004KT M01/M04 A3035 RMK A01 T10071040  RH  079%=      5-min Rain = 0
KKN1 201500Z 17004KT M00/M04 A3035 RMK A01 T10041040  RH  077%=      5-min Rain = 0
KKN1 201505Z 17006KT M00/M04 A3034 RMK A01 T10021043  RH  075%=      5-min Rain = 0
KKN1 201510Z 17006KT 00/M04 A3034 RMK A01 T00011044  RH  072%=      5-min Rain = 0
KKN1 201515Z 17005KT 00/M04 A3034 RMK A01 T00031043  RH  071%=      5-min Rain = 0
KKN1 201520Z 16006KT 01/M04 A3034 RMK A01 T00061041  RH  071%=      5-min Rain = 0
KKN1 201525Z 17006KT 01/M04 A3034 RMK A01 T00081043  RH  069%=      5-min Rain = 0
KKN1 201530Z 18006KT 01/M05 A3035 RMK A01 T00101045  RH  067%=      5-min Rain = 0
KKN1 201535Z 18006KT 01/M05 A3035 RMK A01 T00121045  RH  066%=      5-min Rain = 0
KKN1 201540Z 18006KT 01/M04 A3035 RMK A01 T00141044  RH  066%=      5-min Rain = 0
KKN1 201545Z 18007KT 02/M05 A3034 RMK A01 T00171045  RH  064%=      5-min Rain = 0
KKN1 201550Z 18008KT 02/M05 A3034 RMK A01 T00201045  RH  062%=      5-min Rain = 0
KKN1 201555Z 19008KT 02/M05 A3034 RMK A01 T00201048  RH  061%=      5-min Rain = 0
KKN1 201600Z 19008KT 02/M05 A3034 RMK A01 T00201047  RH  061%=      5-min Rain = 0
KKN1 201605Z 20007KT 02/M05 A3034 RMK A01 T00221045  RH  062%=      5-min Rain = 0
KKN1 201610Z 19008KT 02/M05 A3034 RMK A01 T00231045  RH  061%=      5-min Rain = 0
KKN1 201615Z 20008KT 03/M04 A3033 RMK A01 T00271044  RH  060%=      5-min Rain = 0
KKN1 201620Z 19008KT 03/M05 A3033 RMK A01 T00301045  RH  058%=      5-min Rain = 0
KKN1 201625Z 19010KT 03/M05 A3033 RMK A01 T00311049  RH  056%=      5-min Rain = 0
KKN1 201630Z 19009KT 03/M05 A3033 RMK A01 T00331050  RH  055%=      5-min Rain = 0
KKN1 201635Z 19010KT 04/M05 A3032 RMK A01 T00351049  RH  054%=      5-min Rain = 0
KKN1 201640Z 19009KT 04/M05 A3032 RMK A01 T00371049  RH  054%=      5-min Rain = 0
KKN1 201645Z 18009KT 04/M05 A3032 RMK A01 T00391053  RH  051%=      5-min Rain = 0
KKN1 201650Z 20009KT 04/M05 A3032 RMK A01 T00401051  RH  052%=      5-min Rain = 0
KKN1 201655Z 19009KT 04/M05 A3031 RMK A01 T00421051  RH  051%=      5-min Rain = 0
KKN1 201700Z 19010KT 04/M05 A3031 RMK A01 T00431049  RH  051%=      5-min Rain = 0
KKN1 201705Z 19010KT 05/M05 A3031 RMK A01 T00451049  RH  050%=      5-min Rain = 0
KKN1 201710Z 18011KT 05/M05 A3031 RMK A01 T00461053  RH  049%=      5-min Rain = 0
KKN1 201715Z 18009KT 05/M05 A3031 RMK A01 T00491049  RH  049%=      5-min Rain = 0
KKN1 201720Z 19009KT 05/M05 A303 RMK A01 T00511048  RH  049%=      5-min Rain = 0
KKN1 201725Z 19008KT 05/M05 A303 RMK A01 T00531047  RH  049%=      5-min Rain = 0
KKN1 201730Z 19007KT 06/M05 A303 RMK A01 T00561048  RH  047%=      5-min Rain = 0
KKN1 201735Z 18009KT 06/M05 A303 RMK A01 T00591050  RH  046%=      5-min Rain = 0
KKN1 201740Z 19009KT 06/M05 A303 RMK A01 T00611049  RH  045%=      5-min Rain = 0
KKN1 201745Z 18009KT 06/M05 A3029 RMK A01 T00631048  RH  045%=      5-min Rain = 0
KKN1 201750Z 18011KT 07/M05 A3028 RMK A01 T00651048  RH  044%=      5-min Rain = 0
KKN1 201755Z 19009KT 07/M04 A3028 RMK A01 T00681044  RH  045%=      5-min Rain = 0
KKN1 201800Z 19009KT 07/M04 A3028 RMK A01 T00691042  RH  045%=      5-min Rain = 0
KKN1 201805Z 19009KT 07/M04 A3028 RMK A01 T00731038  RH  045%=      5-min Rain = 0
KKN1 201810Z 18009KT 08/M04 A3027 RMK A01 T00771037  RH  045%=      5-min Rain = 0
KKN1 201815Z 17009KT 08/M04 A3027 RMK A01 T00801036  RH  044%=      5-min Rain = 0
KKN1 201820Z 17008KT 08/M04 A3027 RMK A01 T00781036  RH  045%=      5-min Rain = 0
KKN1 201825Z 17008KT 09/M03 A3027 RMK A01 T00851030  RH  045%=      5-min Rain = 0
KKN1 201830Z 16008KT 09/M03 A3026 RMK A01 T00881030  RH  044%=      5-min Rain = 0
KKN1 201835Z 15009KT 09/M03 A3025 RMK A01 T00871028  RH  044%=      5-min Rain = 0
KKN1 201840Z 15010KT 09/M03 A3024 RMK A01 T00881028  RH  044%=      5-min Rain = 0
KKN1 201845Z 15009KT 09/M03 A3024 RMK A01 T00921026  RH  044%=      5-min Rain = 0
KKN1 201850Z 15010KT 09/M03 A3024 RMK A01 T00921029  RH  043%=      5-min Rain = 0
KKN1 201855Z 14009KT 09/M02 A3024 RMK A01 T00941023  RH  044%=      5-min Rain = 0
KKN1 201900Z 15009KT 10/M02 A3024 RMK A01 T00971021  RH  044%=      5-min Rain = 0
KKN1 201905Z 15010KT 10/M02 A3024 RMK A01 T01001020  RH  043%=      5-min Rain = 0
KKN1 201910Z 16009G14KT 11/M02 A3023 RMK A01 T01051019  RH  042%=      5-min Rain = 0
KKN1 201915Z 16010G15KT 11/M02 A3023 RMK A01 T01061020  RH  042%=      5-min Rain = 0
KKN1 201920Z 17010KT 11/M02 A3023 RMK A01 T01071022  RH  041%=      5-min Rain = 0
KKN1 201925Z 16010KT 11/M02 A3023 RMK A01 T01091023  RH  040%=      5-min Rain = 0
KKN1 201930Z 17010KT 11/M02 A3022 RMK A01 T01101021  RH  040%=      5-min Rain = 0
KKN1 201935Z 17010KT 11/M02 A3021 RMK A01 T01131020  RH  040%=      5-min Rain = 0
KKN1 201940Z 16011G16KT 11/M02 A302 RMK A01 T01141019  RH  040%=      5-min Rain = 0
KKN1 201945Z 16011KT 12/M02 A302 RMK A01 T01151020  RH  039%=      5-min Rain = 0
KKN1 201950Z 15011G16KT 12/M02 A3019 RMK A01 T01191017  RH  039%=      5-min Rain = 0
KKN1 201955Z 16013G18KT 12/M02 A3019 RMK A01 T01221018  RH  038%=      5-min Rain = 0
KKN1 202000Z 16011KT 13/M02 A3019 RMK A01 T01251017  RH  038%=      5-min Rain = 0
KKN1 202005Z 18012G17KT 13/M02 A3018 RMK A01 T01251018  RH  037%=      5-min Rain = 0
KKN1 202010Z 18013KT 13/M02 A3018 RMK A01 T01251019  RH  037%=      5-min Rain = 0
KKN1 202015Z 18012G17KT 13/M02 A3017 RMK A01 T01251019  RH  037%=      5-min Rain = 0
KKN1 202020Z 17013KT 13/M02 A3017 RMK A01 T01311016  RH  036%=      5-min Rain = 0
KKN1 202025Z 18012G17KT 13/M02 A3017 RMK A01 T01301017  RH  036%=      5-min Rain = 0
KKN1 202030Z 18012KT 13/M02 A3017 RMK A01 T01301016  RH  037%=      5-min Rain = 0
KKN1 202035Z 19012G17KT 13/M01 A3016 RMK A01 T01321014  RH  037%=      5-min Rain = 0
KKN1 202040Z 18012KT 14/M01 A3016 RMK A01 T01351014  RH  036%=      5-min Rain = 0
KKN1 202045Z 19012KT 13/M01 A3016 RMK A01 T01341014  RH  036%=      5-min Rain = 0
KKN1 202050Z 17011KT 14/M01 A3016 RMK A01 T01351013  RH  036%=      5-min Rain = 0
KKN1 202055Z 18012G17KT 14/M01 A3016 RMK A01 T01381012  RH  036%=      5-min Rain = 0
KKN1 202100Z 19011KT 13/M01 A3015 RMK A01 T01341012  RH  037%=      5-min Rain = 0
KKN1 202105Z 19011KT 13/M01 A3015 RMK A01 T01341012  RH  037%=      5-min Rain = 0
KKN1 202110Z 18011KT 13/M01 A3015 RMK A01 T01341011  RH  037%=      5-min Rain = 0
KKN1 202115Z 18010KT 14/M01 A3015 RMK A01 T01361011  RH  037%=      5-min Rain = 0
KKN1 202120Z 19011KT 14/M01 A3014 RMK A01 T01351011  RH  037%=      5-min Rain = 0
KKN1 202125Z 18011KT 13/M01 A3014 RMK A01 T01321011  RH  038%=      5-min Rain = 0
KKN1 202130Z 18010KT 13/M01 A3014 RMK A01 T01331011  RH  037%=      5-min Rain = 0
KKN1 202135Z 18012KT 14/M01 A3014 RMK A01 T01351012  RH  037%=      5-min Rain = 0
KKN1 202140Z 18010KT 13/M01 A3013 RMK A01 T01341010  RH  037%=      5-min Rain = 0
KKN1 202145Z 16010KT 14/M01 A3013 RMK A01 T01351010  RH  037%=      5-min Rain = 0
KKN1 202150Z 16010KT 14/M01 A3013 RMK A01 T01371009  RH  037%=      5-min Rain = 0
KKN1 202155Z 16010KT 14/M01 A3013 RMK A01 T01371010  RH  037%=      5-min Rain = 0
KKN1 202200Z 16011KT 13/M01 A3013 RMK A01 T01341012  RH  037%=      5-min Rain = 0
KKN1 202205Z 16011KT 13/M01 A3013 RMK A01 T01321011  RH  038%=      5-min Rain = 0
KKN1 202210Z 16010KT 13/M01 A3012 RMK A01 T01321009  RH  038%=      5-min Rain = 0
KKN1 202215Z 16010KT 13/M01 A3013 RMK A01 T01311009  RH  038%=      5-min Rain = 0
KKN1 202220Z 15009KT 13/M01 A3012 RMK A01 T01301007  RH  039%=      5-min Rain = 0
KKN1 202225Z 16010KT 13/M01 A3011 RMK A01 T01311007  RH  039%=      5-min Rain = 0
KKN1 202230Z 16010KT 13/M01 A3011 RMK A01 T01331005  RH  039%=      5-min Rain = 0
KKN1 202235Z 15009KT 14/M00 A3011 RMK A01 T01361003  RH  039%=      5-min Rain = 0
KKN1 202240Z 15010KT 14/M00 A3011 RMK A01 T01401001  RH  038%=      5-min Rain = 0
KKN1 202245Z 15010KT 14/M00 A3011 RMK A01 T01391001  RH  039%=      5-min Rain = 0
KKN1 202250Z 15010KT 14/00 A3011 RMK A01 T01370000  RH  040%=      5-min Rain = 0
KKN1 202255Z 15010KT 14/M00 A3011 RMK A01 T01381001  RH  039%=      5-min Rain = 0
KKN1 202300Z 15011KT 14/M00 A3011 RMK A01 T01381001  RH  039%=      5-min Rain = 0
KKN1 202305Z 15011KT 14/00 A301 RMK A01 T013900-0  RH  039%=      5-min Rain = 0
KKN1 202310Z 15011KT 14/00 A301 RMK A01 T01390001  RH  039%=      5-min Rain = 0
KKN1 202315Z 15011KT 14/00 A301 RMK A01 T01380001  RH  039%=      5-min Rain = 0
KKN1 202320Z 15011KT 14/00 A301 RMK A01 T01380000  RH  039%=      5-min Rain = 0
KKN1 202325Z 15010KT 14/00 A301 RMK A01 T01360002  RH  040%=      5-min Rain = 0
KKN1 202330Z 15010KT 14/00 A301 RMK A01 T01350003  RH  041%=      5-min Rain = 0
KKN1 202335Z 15009KT 13/00 A301 RMK A01 T01330004  RH  042%=      5-min Rain = 0
KKN1 202340Z 15009KT 13/01 A301 RMK A01 T01310006  RH  043%=      5-min Rain = 0
KKN1 202345Z 15009KT 13/01 A301 RMK A01 T01270008  RH  045%=      5-min Rain = 0
KKN1 202350Z 14009KT 12/01 A301 RMK A01 T01210011  RH  048%=      5-min Rain = 0
KKN1 202355Z 14008KT 12/01 A301 RMK A01 T01160013  RH  050%=      5-min Rain = 0
KKN1 210000Z 14008KT 11/01 A301 RMK A01 T01120014  RH  052%=      5-min Rain = 0
KKN1 210005Z 14008KT 11/02 A301 RMK A01 T01080015  RH  053%=      5-min Rain = 0
KKN1 210010Z 14009KT 11/02 A301 RMK A01 T01050015  RH  054%=      5-min Rain = 0
KKN1 210015Z 15009KT 10/02 A301 RMK A01 T01030015  RH  055%=      5-min Rain = 0
KKN1 210020Z 15009KT 11/01 A301 RMK A01 T01060013  RH  054%=      5-min Rain = 0
KKN1 210025Z 15009KT 11/01 A301 RMK A01 T01070012  RH  053%=      5-min Rain = 0
KKN1 210030Z 15010KT 11/01 A301 RMK A01 T01070012  RH  053%=      5-min Rain = 0
KKN1 210035Z 15011KT 11/01 A3009 RMK A01 T01060011  RH  052%=      5-min Rain = 0
KKN1 210040Z 15011KT 11/01 A3009 RMK A01 T01070010  RH  052%=      5-min Rain = 0
KKN1 210045Z 15011KT 11/01 A301 RMK A01 T01070010  RH  052%=      5-min Rain = 0
KKN1 210050Z 15011KT 11/01 A301 RMK A01 T01050010  RH  052%=      5-min Rain = 0
KKN1 210055Z 16011KT 10/01 A301 RMK A01 T01040009  RH  053%=      5-min Rain = 0
KKN1 210100Z 16011KT 10/01 A301 RMK A01 T01030010  RH  053%=      5-min Rain = 0
KKN1 210105Z 16011KT 10/01 A3009 RMK A01 T01020010  RH  053%=      5-min Rain = 0
KKN1 210110Z 16010KT 10/01 A3009 RMK A01 T01000010  RH  054%=      5-min Rain = 0
KKN1 210115Z 16010KT 10/01 A3009 RMK A01 T00990011  RH  055%=      5-min Rain = 0
KKN1 210120Z 16010KT 10/01 A3009 RMK A01 T00960011  RH  056%=      5-min Rain = 0
KKN1 210125Z 15009KT 09/01 A3009 RMK A01 T00940011  RH  057%=      5-min Rain = 0
KKN1 210130Z 15010KT 09/01 A3009 RMK A01 T00940011  RH  057%=      5-min Rain = 0
KKN1 210135Z 15009KT 09/01 A3009 RMK A01 T00920012  RH  058%=      5-min Rain = 0
KKN1 210140Z 15011KT 09/01 A3008 RMK A01 T00910012  RH  058%=      5-min Rain = 0
KKN1 210145Z 15012KT 09/01 A3008 RMK A01 T00930011  RH  058%=      5-min Rain = 0
KKN1 210150Z 15012KT 09/01 A3008 RMK A01 T00930011  RH  057%=      5-min Rain = 0
KKN1 210155Z 15012KT 09/01 A3008 RMK A01 T00930010  RH  057%=      5-min Rain = 0
KKN1 210200Z 15013KT 09/01 A3008 RMK A01 T00930010  RH  057%=      5-min Rain = 0
KKN1 210205Z 15013KT 09/01 A3008 RMK A01 T00910010  RH  058%=      5-min Rain = 0
KKN1 210210Z 15013KT 09/01 A3008 RMK A01 T00910010  RH  057%=      5-min Rain = 0
KKN1 210215Z 15013KT 09/01 A3008 RMK A01 T00900011  RH  058%=      5-min Rain = 0
KKN1 210220Z 15012KT 09/01 A3008 RMK A01 T00880012  RH  060%=      5-min Rain = 0
KKN1 210225Z 15012KT 08/01 A3008 RMK A01 T00830013  RH  062%=      5-min Rain = 0
KKN1 210230Z 15013KT 08/01 A3007 RMK A01 T00820011  RH  062%=      5-min Rain = 0
KKN1 210235Z 15013KT 08/01 A3007 RMK A01 T00800010  RH  062%=      5-min Rain = 0
KKN1 210240Z 15013KT 08/01 A3007 RMK A01 T00800008  RH  061%=      5-min Rain = 0
KKN1 210245Z 15014KT 08/01 A3006 RMK A01 T00800007  RH  061%=      5-min Rain = 0
KKN1 210250Z 15014KT 08/01 A3006 RMK A01 T00800007  RH  061%=      5-min Rain = 0
KKN1 210255Z 15014KT 08/01 A3006 RMK A01 T00800006  RH  060%=      5-min Rain = 0
KKN1 210300Z 15013KT 08/01 A3006 RMK A01 T00780006  RH  061%=      5-min Rain = 0
KKN1 210305Z 16012KT 07/01 A3006 RMK A01 T00740006  RH  062%=      5-min Rain = 0
KKN1 210310Z 16012KT 07/01 A3007 RMK A01 T00730005  RH  063%=      5-min Rain = 0
KKN1 210315Z 15011KT 07/01 A3006 RMK A01 T00710005  RH  064%=      5-min Rain = 0
KKN1 210320Z 15012KT 07/01 A3006 RMK A01 T00710005  RH  064%=      5-min Rain = 0
KKN1 210325Z 15012KT 07/00 A3006 RMK A01 T00710004  RH  063%=      5-min Rain = 0
KKN1 210330Z 15012KT 07/00 A3006 RMK A01 T00700004  RH  063%=      5-min Rain = 0
KKN1 210335Z 15012KT 07/00 A3006 RMK A01 T00700003  RH  063%=      5-min Rain = 0
KKN1 210340Z 15012KT 07/00 A3005 RMK A01 T00690003  RH  063%=      5-min Rain = 0
KKN1 210345Z 15012KT 07/00 A3005 RMK A01 T00680003  RH  064%=      5-min Rain = 0
KKN1 210350Z 15011KT 07/00 A3005 RMK A01 T00670003  RH  064%=      5-min Rain = 0
KKN1 210355Z 15012KT 07/00 A3005 RMK A01 T00660003  RH  065%=      5-min Rain = 0
KKN1 210400Z 15013KT 07/00 A3004 RMK A01 T00650003  RH  065%=      5-min Rain = 0
KKN1 210405Z 15013KT 07/00 A3004 RMK A01 T00650002  RH  065%=      5-min Rain = 0
KKN1 210410Z 15014KT 07/00 A3004 RMK A01 T00650001  RH  064%=      5-min Rain = 0
KKN1 210415Z 15014KT 07/00 A3004 RMK A01 T00660000  RH  064%=      5-min Rain = 0
KKN1 210420Z 15014KT 07/M00 A3004 RMK A01 T00661001  RH  063%=      5-min Rain = 0
KKN1 210425Z 15014KT 07/M00 A3004 RMK A01 T00651001  RH  063%=      5-min Rain = 0
KKN1 210430Z 15014KT 06/M00 A3004 RMK A01 T00641001  RH  064%=      5-min Rain = 0
KKN1 210435Z 15013KT 06/M00 A3003 RMK A01 T00621001  RH  064%=      5-min Rain = 0
KKN1 210440Z 15013KT 06/M00 A3003 RMK A01 T00621001  RH  065%=      5-min Rain = 0
KKN1 210445Z 16012KT 06/M00 A3004 RMK A01 T00601001  RH  065%=      5-min Rain = 0
KKN1 210450Z 16012KT 06/M00 A3003 RMK A01 T00591001  RH  066%=      5-min Rain = 0
KKN1 210455Z 16013KT 06/M00 A3003 RMK A01 T00581001  RH  066%=      5-min Rain = 0
KKN1 210500Z 15013KT 06/M00 A3003 RMK A01 T00591001  RH  066%=      5-min Rain = 0
KKN1 210505Z 15013KT 06/M00 A3003 RMK A01 T00591001  RH  066%=      5-min Rain = 0
KKN1 210510Z 15013KT 06/M00 A3003 RMK A01 T00581001  RH  066%=      5-min Rain = 0
KKN1 210515Z 15012KT 06/M00 A3003 RMK A01 T00571001  RH  067%=      5-min Rain = 0
KKN1 210520Z 15012KT 06/M00 A3003 RMK A01 T00561001  RH  068%=      5-min Rain = 0
KKN1 210525Z 15011KT 05/M00 A3004 RMK A01 T00541001  RH  068%=      5-min Rain = 0
KKN1 210530Z 16010KT 05/M00 A3004 RMK A01 T00531001  RH  069%=      5-min Rain = 0
KKN1 210535Z 16009KT 05/M00 A3004 RMK A01 T00521001  RH  069%=      5-min Rain = 0
KKN1 210540Z 16008KT 05/M00 A3004 RMK A01 T00511001  RH  070%=      5-min Rain = 0
KKN1 210545Z 16008KT 05/M00 A3004 RMK A01 T00501001  RH  071%=      5-min Rain = 0
KKN1 210550Z 16007KT 05/M00 A3004 RMK A01 T00491001  RH  071%=      5-min Rain = 0
KKN1 210555Z 16006KT 05/M00 A3005 RMK A01 T00491001  RH  071%=      5-min Rain = 0

Page generated in 0.0092 seconds.